Terminal Aerodrome Forecast
Issued by NWS Twin Cities, MN

Home | Current Version | Previous Version | Text Only | Print | Product List | Glossary Off
Versions: 1 2 3 4 5 6 7 8 9 10 11 12 13 14 15 16 17

000
FTUS43 KMPX 250500
TAFEAU
TAF
KEAU 250531Z 2506/2606 17010KT 6SM -TSRA SCT020 BKN040CB
      TEMPO 2506/2507 1SM -TSRA BR SCT007 OVC020CB
     FM250700 20003KT P6SM BKN040 OVC080
     FM251500 25009KT P6SM SKC
     FM260100 29005KT P6SM SCT200=

USA.gov is the U.S. government's official web portal to all federal, state and local government web resources and services.